Terminal Aerodrome Forecast
Issued by NWS

Home | Current Version | Previous Version | Text Only | Print | Product List | Glossary On
Versions: 1 2 3 4 5 6 7 8 9 10 11 12 13 14 15 16 17 18 19 20 21 22 23 24 25 26 27 28 29 30 31 32 33 34 35 36 37 38 39
541
FTAK31 PANC 121139
TAFADQ
TAF
PADQ 121139Z 1212/1312 33011KT 6SM -SHRA SCT007 SCT015 OVC030
      TEMPO 1212/1214 SCT007 BKN015 OVC030
     FM121400 33011KT 5SM -RA BR SCT007 BKN015 OVC025
      TEMPO 1214/1218 3SM RA BR BKN007 OVC015
     FM130300 25010KT P6SM -SHRA BKN020 BKN035
     FM130600 12008KT P6SM VCSH BKN020 OVC035
     FM131000 10010KT 6SM -RA BKN025 OVC035=

USA.gov is the U.S. government's official web portal to all federal, state and local government web resources and services.